Isabella — 9HSL7 — position and weather

sailwx.info

Track history (hours):
 
Tides and Currents Weather Stations Pressure Air Temp Water Temp Dewpoint Dewpoint Depression Visibility Wind Speed Wind Dir Waves Ship Positions

Isabella

Last reported at 2015-Jan-26 13:23 UTC. Time now 2015-Jan-26 14:32 UTC.
Position N 40°04' E 026°18'.

Length 244 m; draft 13 m.

Type: Tanker. MMSI: 215545000.

Date/timePositionNaut miles runAvg speedWind from/ knotsBaromVisibWave heightAir tempDewpointWater temp
2015-Jan-26 13:23N 40°04' E 026°18'  
2015-Jan-23 05:22N 41°20' E 029°09'6 0.9
2015-Jan-22 22:31N 41°26' E 029°11'10 3.4
2015-Jan-22 19:33N 41°28' E 029°24'1211.6
2015-Jan-22 18:32N 41°32' E 029°39'23012.1
2015-Jan-21 23:33N 43°17' E 034°16'912.4
2015-Jan-21 22:50N 43°21' E 034°27'112.4
2015-Jan-21 22:46N 43°21' E 034°28'312.3
2015-Jan-21 22:32N 43°22' E 034°32'1212.3
2015-Jan-21 21:33N 43°28' E 034°47'1212.4
2015-Jan-21 20:33N 43°33' E 035°02'1212.4
2015-Jan-21 19:33N 43°39' E 035°17'1312.6
2015-Jan-21 18:33N 43°45' E 035°33'1312.6
2015-Jan-21 17:33N 43°51' E 035°48'1312.7
2015-Jan-21 16:33N 43°56' E 036°04'1212.4
2015-Jan-21 15:33N 44°02' E 036°19'1212.2
2015-Jan-21 14:33N 44°08' E 036°34'1412.2
2015-Jan-21 13:25N 44°14' E 036°52'1212.5
2015-Jan-21 12:26N 44°20' E 037°07'1112.3
2015-Jan-21 11:33N 44°24' E 037°20'1211.9
2015-Jan-21 10:33N 44°30' E 037°35'7 7.5
2015-Jan-21 09:33N 44°35' E 037°42'1 0.9
2015-Jan-21 08:33N 44°36' E 037°42'0 0.5
2015-Jan-21 07:33N 44°37' E 037°43'2 1.7
2015-Jan-21 06:33N 44°35' E 037°41'2 2.5
2015-Jan-21 05:33N 44°33' E 037°39'0 0.5
2015-Jan-21 04:33N 44°34' E 037°39'3 3.2
2015-Jan-21 03:33N 44°34' E 037°43'0 0.2
2015-Jan-21 02:33N 44°34' E 037°43'0 0.4
2015-Jan-21 01:33N 44°34' E 037°43'0 0.3
2015-Jan-21 00:33N 44°34' E 037°43'0 0.4
2015-Jan-20 23:33N 44°34' E 037°42'0 0.4
2015-Jan-20 22:33N 44°34' E 037°42'0 0.4
2015-Jan-20 21:33N 44°34' E 037°41'0 0.4
2015-Jan-20 20:33N 44°34' E 037°41'0 0.4
2015-Jan-20 19:33N 44°34' E 037°40'0 0.3
2015-Jan-20 18:33N 44°34' E 037°40'0 0.3
2015-Jan-20 17:33N 44°34' E 037°39'0 0.4
2015-Jan-20 16:33N 44°33' E 037°39'1 1.2
2015-Jan-20 15:33N 44°34' E 037°39'3 3.2
2015-Jan-20 14:33N 44°37' E 037°42'1 0.6
2015-Jan-20 13:33N 44°36' E 037°43'0 0.4
2015-Jan-20 12:33N 44°36' E 037°43'1 1.1
2015-Jan-20 11:33N 44°37' E 037°44'1 1.2
2015-Jan-20 10:33N 44°37' E 037°42'7 6.5
2015-Jan-20 09:33N 44°33' E 037°35'2 1.9
2015-Jan-20 08:32N 44°33' E 037°32'0 0.2
2015-Jan-20 07:33N 44°33' E 037°32'3 3.3
2015-Jan-20 06:33N 44°33' E 037°36'4 4.5
2015-Jan-20 05:33N 44°36' E 037°41'1 0.7
2015-Jan-20 04:33N 44°35' E 037°40'1 1.0
2015-Jan-20 03:33N 44°35' E 037°39'1 0.9
2015-Jan-20 02:33N 44°34' E 037°38'1 1.0
2015-Jan-20 01:33N 44°34' E 037°37'1 1.2
2015-Jan-20 00:34N 44°33' E 037°35'1 1.2
2015-Jan-19 23:33N 44°32' E 037°34'1 1.1
2015-Jan-19 22:33N 44°32' E 037°33'1 1.0
2015-Jan-19 21:33N 44°33' E 037°33'8 8.4
2015-Jan-19 20:33N 44°34' E 037°44'1 0.9
2015-Jan-19 19:33N 44°35' E 037°45'1 1.0
2015-Jan-19 18:33N 44°35' E 037°44'1 1.1
2015-Jan-19 17:33N 44°34' E 037°42'1 0.8
2015-Jan-19 16:33N 44°34' E 037°41'2 1.9
2015-Jan-19 15:34N 44°36' E 037°43'1 1.3
2015-Jan-19 14:33N 44°36' E 037°44'1 1.1
2015-Jan-19 13:33N 44°36' E 037°43'2 2.1
2015-Jan-19 12:34N 44°36' E 037°40'2 1.5
2015-Jan-19 11:19N 44°38' E 037°38'0 0.0
2015-Jan-19 10:31N 44°38' E 037°38'0 0.0
2015-Jan-19 09:28N 44°38' E 037°38'0 0.0
2015-Jan-19 08:31N 44°38' E 037°38'0 0.0
2015-Jan-19 07:31N 44°38' E 037°38'0 0.0
2015-Jan-19 06:31N 44°38' E 037°38'0 0.0
2015-Jan-19 05:31N 44°38' E 037°38'0 0.0
2015-Jan-19 04:28N 44°38' E 037°38'0 0.0
2015-Jan-19 03:25N 44°38' E 037°38'0 0.0
2015-Jan-19 01:22N 44°38' E 037°38'0 0.0
2015-Jan-18 23:22N 44°38' E 037°38'0 0.0
2015-Jan-18 22:16N 44°38' E 037°38'2 2.2
2015-Jan-18 21:33N 44°37' E 037°40'3 2.9
2015-Jan-18 20:33N 44°35' E 037°39'4 3.7
2015-Jan-18 19:33N 44°36' E 037°34'4 0.9
2015-Jan-18 14:31N 44°36' E 037°27'1 1.1
2015-Jan-18 13:33N 44°35' E 037°28'1 1.1
2015-Jan-18 12:33N 44°34' E 037°28'1 1.1
2015-Jan-18 11:33N 44°33' E 037°29'1 1.1
2015-Jan-18 10:33N 44°33' E 037°30'1 1.1
2015-Jan-18 09:33N 44°32' E 037°32'1 1.1
2015-Jan-18 08:33N 44°32' E 037°33'1 0.9
2015-Jan-18 07:33N 44°32' E 037°34'1 0.6
2015-Jan-18 06:33N 44°32' E 037°35'0 0.4
2015-Jan-18 05:33N 44°32' E 037°36'0 0.4
2015-Jan-18 04:33N 44°32' E 037°36'0 0.2
2015-Jan-18 03:33N 44°32' E 037°37'0 0.1
2015-Jan-18 02:31N 44°32' E 037°37'0 0.1
2015-Jan-18 01:33N 44°32' E 037°36'0 0.1
2015-Jan-18 00:33N 44°32' E 037°36'0 0.1
2015-Jan-17 23:33N 44°32' E 037°36'0 0.1
2015-Jan-17 22:33N 44°32' E 037°36'0 0.2
2015-Jan-17 21:33N 44°32' E 037°36'0 0.2
2015-Jan-17 20:33N 44°32' E 037°36'0 0.2
2015-Jan-17 19:33N 44°33' E 037°36'0 0.2
2015-Jan-17 18:33N 44°33' E 037°36'0 0.3
2015-Jan-17 17:33N 44°33' E 037°36'0 0.3
2015-Jan-17 16:33N 44°33' E 037°35'0 0.4
2015-Jan-17 15:33N 44°33' E 037°35'1 0.5
2015-Jan-17 14:33N 44°34' E 037°34'1 0.5
2015-Jan-17 13:33N 44°34' E 037°33'1 0.7
2015-Jan-17 12:33N 44°33' E 037°32'1 0.9
2015-Jan-17 11:33N 44°33' E 037°31'1 0.8
2015-Jan-17 10:33N 44°33' E 037°30'1 0.6
2015-Jan-17 09:33N 44°33' E 037°29'1 0.5
2015-Jan-17 08:33N 44°33' E 037°28'0 0.3
2015-Jan-17 07:33N 44°33' E 037°28'0 0.3
2015-Jan-17 06:33N 44°33' E 037°28'0 0.4
2015-Jan-17 05:33N 44°33' E 037°27'0 0.3
2015-Jan-17 04:33N 44°33' E 037°27'0 0.2
2015-Jan-17 03:33N 44°33' E 037°26'0 0.2
2015-Jan-17 02:33N 44°33' E 037°26'0 0.1
2015-Jan-17 01:33N 44°33' E 037°26'0 0.2
2015-Jan-17 00:33N 44°34' E 037°26'0 0.4
2015-Jan-16 23:33N 44°34' E 037°26'1 0.5
2015-Jan-16 22:33N 44°34' E 037°27'1 0.7
2015-Jan-16 21:33N 44°35' E 037°28'1 0.8
2015-Jan-16 20:27N 44°35' E 037°29'1 0.7
2015-Jan-16 19:28N 44°36' E 037°29'1 0.5
2015-Jan-16 18:09N 44°36' E 037°30'0 0.7
2015-Jan-16 17:31N 44°36' E 037°31'1 0.6
2015-Jan-16 16:22N 44°37' E 037°31'0 0.5
2015-Jan-16 15:32N 44°37' E 037°31'0 0.4
2015-Jan-16 14:32N 44°37' E 037°31'3 2.7
2015-Jan-16 13:33N 44°36' E 037°28'  
Track history (hours):
 
Tides and Currents Weather Stations Pressure Air Temp Water Temp Dewpoint Dewpoint Depression Visibility Wind Speed Wind Dir Waves Ship Positions

Isabella

Last reported at 2015-Jan-26 13:23 UTC. Time now 2015-Jan-26 14:32 UTC.
Position N 40°04' E 026°18'.

Length 244 m; draft 13 m.

Type: Tanker. MMSI: 215545000.

Date/timePositionNaut miles runAvg speedWind from/ knotsBaromVisibWave heightAir tempDewpointWater temp
2015-Jan-26 13:23N 40°04' E 026°18'  
2015-Jan-23 05:22N 41°20' E 029°09'6 0.9
2015-Jan-22 22:31N 41°26' E 029°11'10 3.4
2015-Jan-22 19:33N 41°28' E 029°24'1211.6
2015-Jan-22 18:32N 41°32' E 029°39'23012.1
2015-Jan-21 23:33N 43°17' E 034°16'912.4
2015-Jan-21 22:50N 43°21' E 034°27'112.4
2015-Jan-21 22:46N 43°21' E 034°28'312.3
2015-Jan-21 22:32N 43°22' E 034°32'1212.3
2015-Jan-21 21:33N 43°28' E 034°47'1212.4
2015-Jan-21 20:33N 43°33' E 035°02'1212.4
2015-Jan-21 19:33N 43°39' E 035°17'1312.6
2015-Jan-21 18:33N 43°45' E 035°33'1312.6
2015-Jan-21 17:33N 43°51' E 035°48'1312.7
2015-Jan-21 16:33N 43°56' E 036°04'1212.4
2015-Jan-21 15:33N 44°02' E 036°19'1212.2
2015-Jan-21 14:33N 44°08' E 036°34'1412.2
2015-Jan-21 13:25N 44°14' E 036°52'1212.5
2015-Jan-21 12:26N 44°20' E 037°07'1112.3
2015-Jan-21 11:33N 44°24' E 037°20'1211.9
2015-Jan-21 10:33N 44°30' E 037°35'7 7.5
2015-Jan-21 09:33N 44°35' E 037°42'1 0.9
2015-Jan-21 08:33N 44°36' E 037°42'0 0.5
2015-Jan-21 07:33N 44°37' E 037°43'2 1.7
2015-Jan-21 06:33N 44°35' E 037°41'2 2.5
2015-Jan-21 05:33N 44°33' E 037°39'0 0.5
2015-Jan-21 04:33N 44°34' E 037°39'3 3.2
2015-Jan-21 03:33N 44°34' E 037°43'0 0.2
2015-Jan-21 02:33N 44°34' E 037°43'0 0.4
2015-Jan-21 01:33N 44°34' E 037°43'0 0.3
2015-Jan-21 00:33N 44°34' E 037°43'0 0.4
2015-Jan-20 23:33N 44°34' E 037°42'0 0.4
2015-Jan-20 22:33N 44°34' E 037°42'0 0.4
2015-Jan-20 21:33N 44°34' E 037°41'0 0.4
2015-Jan-20 20:33N 44°34' E 037°41'0 0.4
2015-Jan-20 19:33N 44°34' E 037°40'0 0.3
2015-Jan-20 18:33N 44°34' E 037°40'0 0.3
2015-Jan-20 17:33N 44°34' E 037°39'0 0.4
2015-Jan-20 16:33N 44°33' E 037°39'1 1.2
2015-Jan-20 15:33N 44°34' E 037°39'3 3.2
2015-Jan-20 14:33N 44°37' E 037°42'1 0.6
2015-Jan-20 13:33N 44°36' E 037°43'0 0.4
2015-Jan-20 12:33N 44°36' E 037°43'1 1.1
2015-Jan-20 11:33N 44°37' E 037°44'1 1.2
2015-Jan-20 10:33N 44°37' E 037°42'7 6.5
2015-Jan-20 09:33N 44°33' E 037°35'2 1.9
2015-Jan-20 08:32N 44°33' E 037°32'0 0.2
2015-Jan-20 07:33N 44°33' E 037°32'3 3.3
2015-Jan-20 06:33N 44°33' E 037°36'4 4.5
2015-Jan-20 05:33N 44°36' E 037°41'1 0.7
2015-Jan-20 04:33N 44°35' E 037°40'1 1.0
2015-Jan-20 03:33N 44°35' E 037°39'1 0.9
2015-Jan-20 02:33N 44°34' E 037°38'1 1.0
2015-Jan-20 01:33N 44°34' E 037°37'1 1.2
2015-Jan-20 00:34N 44°33' E 037°35'1 1.2
2015-Jan-19 23:33N 44°32' E 037°34'1 1.1
2015-Jan-19 22:33N 44°32' E 037°33'1 1.0
2015-Jan-19 21:33N 44°33' E 037°33'8 8.4
2015-Jan-19 20:33N 44°34' E 037°44'1 0.9
2015-Jan-19 19:33N 44°35' E 037°45'1 1.0
2015-Jan-19 18:33N 44°35' E 037°44'1 1.1
2015-Jan-19 17:33N 44°34' E 037°42'1 0.8
2015-Jan-19 16:33N 44°34' E 037°41'2 1.9
2015-Jan-19 15:34N 44°36' E 037°43'1 1.3
2015-Jan-19 14:33N 44°36' E 037°44'1 1.1
2015-Jan-19 13:33N 44°36' E 037°43'2 2.1
2015-Jan-19 12:34N 44°36' E 037°40'2 1.5
2015-Jan-19 11:19N 44°38' E 037°38'0 0.0
2015-Jan-19 10:31N 44°38' E 037°38'0 0.0
2015-Jan-19 09:28N 44°38' E 037°38'0 0.0
2015-Jan-19 08:31N 44°38' E 037°38'0 0.0
2015-Jan-19 07:31N 44°38' E 037°38'0 0.0
2015-Jan-19 06:31N 44°38' E 037°38'0 0.0
2015-Jan-19 05:31N 44°38' E 037°38'0 0.0
2015-Jan-19 04:28N 44°38' E 037°38'0 0.0
2015-Jan-19 03:25N 44°38' E 037°38'0 0.0
2015-Jan-19 01:22N 44°38' E 037°38'0 0.0
2015-Jan-18 23:22N 44°38' E 037°38'0 0.0
2015-Jan-18 22:16N 44°38' E 037°38'2 2.2
2015-Jan-18 21:33N 44°37' E 037°40'3 2.9
2015-Jan-18 20:33N 44°35' E 037°39'4 3.7
2015-Jan-18 19:33N 44°36' E 037°34'4 0.9
2015-Jan-18 14:31N 44°36' E 037°27'1 1.1
2015-Jan-18 13:33N 44°35' E 037°28'1 1.1
2015-Jan-18 12:33N 44°34' E 037°28'1 1.1
2015-Jan-18 11:33N 44°33' E 037°29'1 1.1
2015-Jan-18 10:33N 44°33' E 037°30'1 1.1
2015-Jan-18 09:33N 44°32' E 037°32'1 1.1
2015-Jan-18 08:33N 44°32' E 037°33'1 0.9
2015-Jan-18 07:33N 44°32' E 037°34'1 0.6
2015-Jan-18 06:33N 44°32' E 037°35'0 0.4
2015-Jan-18 05:33N 44°32' E 037°36'0 0.4
2015-Jan-18 04:33N 44°32' E 037°36'0 0.2
2015-Jan-18 03:33N 44°32' E 037°37'0 0.1
2015-Jan-18 02:31N 44°32' E 037°37'0 0.1
2015-Jan-18 01:33N 44°32' E 037°36'0 0.1
2015-Jan-18 00:33N 44°32' E 037°36'0 0.1
2015-Jan-17 23:33N 44°32' E 037°36'0 0.1
2015-Jan-17 22:33N 44°32' E 037°36'0 0.2
2015-Jan-17 21:33N 44°32' E 037°36'0 0.2
2015-Jan-17 20:33N 44°32' E 037°36'0 0.2
2015-Jan-17 19:33N 44°33' E 037°36'0 0.2
2015-Jan-17 18:33N 44°33' E 037°36'0 0.3
2015-Jan-17 17:33N 44°33' E 037°36'0 0.3
2015-Jan-17 16:33N 44°33' E 037°35'0 0.4
2015-Jan-17 15:33N 44°33' E 037°35'1 0.5
2015-Jan-17 14:33N 44°34' E 037°34'1 0.5
2015-Jan-17 13:33N 44°34' E 037°33'1 0.7
2015-Jan-17 12:33N 44°33' E 037°32'1 0.9
2015-Jan-17 11:33N 44°33' E 037°31'1 0.8
2015-Jan-17 10:33N 44°33' E 037°30'1 0.6
2015-Jan-17 09:33N 44°33' E 037°29'1 0.5
2015-Jan-17 08:33N 44°33' E 037°28'0 0.3
2015-Jan-17 07:33N 44°33' E 037°28'0 0.3
2015-Jan-17 06:33N 44°33' E 037°28'0 0.4
2015-Jan-17 05:33N 44°33' E 037°27'0 0.3
2015-Jan-17 04:33N 44°33' E 037°27'0 0.2
2015-Jan-17 03:33N 44°33' E 037°26'0 0.2
2015-Jan-17 02:33N 44°33' E 037°26'0 0.1
2015-Jan-17 01:33N 44°33' E 037°26'0 0.2
2015-Jan-17 00:33N 44°34' E 037°26'0 0.4
2015-Jan-16 23:33N 44°34' E 037°26'1 0.5
2015-Jan-16 22:33N 44°34' E 037°27'1 0.7
2015-Jan-16 21:33N 44°35' E 037°28'1 0.8
2015-Jan-16 20:27N 44°35' E 037°29'1 0.7
2015-Jan-16 19:28N 44°36' E 037°29'1 0.5
2015-Jan-16 18:09N 44°36' E 037°30'0 0.7
2015-Jan-16 17:31N 44°36' E 037°31'1 0.6
2015-Jan-16 16:22N 44°37' E 037°31'0 0.5
2015-Jan-16 15:32N 44°37' E 037°31'0 0.4
2015-Jan-16 14:32N 44°37' E 037°31'3 2.7
2015-Jan-16 13:33N 44°36' E 037°28'  

Dump ship's entire track history